createdAt,value
2023-01-11T00:00:49.445Z,18.40
2023-01-11T00:05:58.679Z,16.50
2023-01-11T00:11:04.401Z,14.60
2023-01-11T00:16:10.522Z,18.80
2023-01-11T00:21:15.968Z,18.43
2023-01-11T00:26:21.688Z,17.50
2023-01-11T00:31:29.834Z,16.97
2023-01-11T00:36:35.558Z,20.47
2023-01-11T00:41:58.719Z,9.93
2023-01-11T00:47:21.877Z,19.57
2023-01-11T00:52:27.521Z,13.93
2023-01-11T00:57:32.982Z,12.90
2023-01-11T01:02:39.920Z,16.03
2023-01-11T01:07:46.219Z,16.93
2023-01-11T01:13:10.190Z,13.10
2023-01-11T01:18:16.241Z,10.40
2023-01-11T01:23:21.503Z,37.33
2023-01-11T01:28:26.974Z,13.90
2023-01-11T01:33:32.950Z,14.50
2023-01-11T01:38:38.339Z,15.63
2023-01-11T01:43:58.575Z,15.50
2023-01-11T01:49:06.898Z,12.63
2023-01-11T01:54:15.178Z,14.23
2023-01-11T01:59:26.159Z,14.40
2023-01-11T02:04:34.385Z,14.23
2023-01-11T02:09:42.714Z,17.53
2023-01-11T02:14:50.471Z,20.43
2023-01-11T02:19:59.460Z,18.43
2023-01-11T02:25:27.576Z,18.97
2023-01-11T02:30:42.453Z,21.47
2023-01-11T02:36:03.585Z,20.60
2023-01-11T02:41:23.885Z,14.33
2023-01-11T02:46:36.042Z,27.57
2023-01-11T02:51:49.907Z,16.80
2023-01-11T02:56:59.378Z,22.10
2023-01-11T03:02:06.213Z,22.83
2023-01-11T03:07:41.480Z,25.83
2023-01-11T03:13:06.465Z,26.17
2023-01-11T03:18:34.368Z,18.23
2023-01-11T03:23:52.572Z,22.83
2023-01-11T03:29:18.895Z,27.47
2023-01-11T03:34:36.084Z,16.93
2023-01-11T03:39:48.223Z,19.63
2023-01-11T03:44:56.632Z,20.30
2023-01-11T03:50:11.681Z,20.23
2023-01-11T03:55:18.282Z,23.33
2023-01-11T04:00:28.823Z,16.50
2023-01-11T04:05:35.929Z,14.37
2023-01-11T04:10:43.747Z,16.47
2023-01-11T04:15:49.199Z,16.10
2023-01-11T04:20:55.649Z,13.97
2023-01-11T04:26:01.380Z,12.77
2023-01-11T04:31:06.698Z,12.20
2023-01-11T04:36:14.442Z,15.20
2023-01-11T04:41:38.942Z,9.23
2023-01-11T04:46:44.237Z,23.27
2023-01-11T04:51:49.568Z,8.80
2023-01-11T04:56:54.980Z,10.73
2023-01-11T05:02:01.832Z,14.97
2023-01-11T05:07:09.419Z,16.97
2023-01-11T05:12:15.170Z,11.80
2023-01-11T05:17:22.083Z,11.47
2023-01-11T05:22:29.739Z,12.30
2023-01-11T05:27:35.948Z,13.47
2023-01-11T05:32:44.833Z,10.70
2023-01-11T05:37:52.270Z,13.17
2023-01-11T05:42:59.183Z,11.07
2023-01-11T05:48:08.210Z,13.07
2023-01-11T05:53:19.991Z,13.60
2023-01-11T05:58:30.973Z,5.30
2023-01-11T06:03:42.125Z,12.27
2023-01-11T06:09:01.788Z,8.77
2023-01-11T06:14:07.121Z,15.17
2023-01-11T06:19:14.331Z,9.63
2023-01-11T06:24:20.864Z,10.07
2023-01-11T06:29:27.936Z,11.67
2023-01-11T06:34:34.037Z,10.83
2023-01-11T06:39:40.467Z,14.50
2023-01-11T06:50:53.301Z,16.97
2023-01-11T06:56:28.817Z,14.87
2023-01-11T07:01:36.252Z,14.60
2023-01-11T07:06:43.201Z,8.50
2023-01-11T07:11:48.706Z,14.27
2023-01-11T07:16:55.427Z,12.83
2023-01-11T07:22:03.137Z,13.70
2023-01-11T07:27:10.379Z,9.73
2023-01-11T07:32:18.051Z,12.63
2023-01-11T07:37:29.293Z,13.17
2023-01-11T07:43:01.130Z,13.63
2023-01-11T07:48:09.747Z,12.60
2023-01-11T07:53:15.371Z,10.17
2023-01-11T07:58:24.755Z,10.07
2023-01-11T08:03:33.675Z,14.40
2023-01-11T08:08:48.386Z,11.47
2023-01-11T08:14:12.547Z,11.37
2023-01-11T08:19:19.840Z,12.93
2023-01-11T08:24:27.352Z,7.20
2023-01-11T08:29:34.805Z,13.07
2023-01-11T08:34:42.396Z,10.57
2023-01-11T08:39:51.423Z,9.07
2023-01-11T08:45:05.812Z,12.00
2023-01-11T08:50:40.603Z,14.20
2023-01-11T08:56:03.827Z,7.27
2023-01-11T09:01:11.046Z,12.50
2023-01-11T09:12:00.487Z,14.37
2023-01-11T09:17:10.772Z,5.63
2023-01-11T09:28:21.269Z,3.77
2023-01-11T09:33:28.903Z,3.17
2023-01-11T09:44:34.516Z,4.77
2023-01-11T09:49:52.427Z,3.33
2023-01-11T09:55:16.090Z,8.67
2023-01-11T10:00:33.819Z,8.87
2023-01-11T10:06:15.615Z,3.93
2023-01-11T10:18:42.884Z,6.27
2023-01-11T10:22:44.281Z,3.80
2023-01-11T10:28:06.080Z,4.60
2023-01-11T10:33:51.513Z,4.67
2023-01-11T10:39:51.683Z,4.40
2023-01-11T10:45:09.786Z,6.63
2023-01-11T10:50:25.897Z,6.30
2023-01-11T10:56:13.619Z,4.97
2023-01-11T11:01:45.444Z,4.60
2023-01-11T11:07:12.518Z,4.63
2023-01-11T11:12:38.748Z,2.27
2023-01-11T11:17:47.985Z,4.70
2023-01-11T11:23:07.645Z,3.37
2023-01-11T11:28:24.189Z,1.20
2023-01-11T11:33:46.588Z,5.80
2023-01-11T11:39:13.878Z,5.20
2023-01-11T11:44:27.156Z,6.60
2023-01-11T11:49:39.383Z,3.17
2023-01-11T12:06:31.473Z,1.57
2023-01-11T12:11:42.318Z,2.30
2023-01-11T12:16:51.000Z,4.53
2023-01-11T12:22:18.903Z,1.27
2023-01-11T12:27:39.869Z,2.33
2023-01-11T12:33:08.657Z,3.40
2023-01-11T12:38:25.179Z,2.47
2023-01-11T12:44:02.457Z,2.80
2023-01-11T12:49:37.146Z,5.90
2023-01-11T12:54:52.493Z,2.80
2023-01-11T13:00:30.240Z,3.53
2023-01-11T13:06:23.876Z,3.17
2023-01-11T13:11:59.464Z,3.77
2023-01-11T13:17:13.358Z,4.57
2023-01-11T13:22:22.189Z,2.97
2023-01-11T13:27:28.869Z,3.90
2023-01-11T13:32:40.256Z,2.13
2023-01-11T13:37:54.044Z,5.10
2023-01-11T13:43:21.783Z,9.57
2023-01-11T13:48:30.565Z,3.50
2023-01-11T13:53:41.583Z,4.77
2023-01-11T13:58:56.375Z,5.07
2023-01-11T14:04:34.925Z,1.87
2023-01-11T14:10:02.597Z,4.43
2023-01-11T14:15:50.917Z,3.70
2023-01-11T14:21:08.346Z,3.03
2023-01-11T14:26:34.754Z,6.57
2023-01-11T14:31:48.869Z,8.20
2023-01-11T14:37:29.063Z,6.07
2023-01-11T14:42:40.497Z,2.60
2023-01-11T14:47:55.064Z,3.50
2023-01-11T14:53:03.561Z,5.97
2023-01-11T14:58:28.194Z,2.90
2023-01-11T15:03:43.064Z,6.03
2023-01-11T15:08:55.203Z,15.03
2023-01-11T15:14:10.227Z,46.00
2023-01-11T15:19:33.493Z,22.33
2023-01-11T15:24:40.856Z,29.80
2023-01-11T15:29:50.501Z,101.00
2023-01-11T15:34:58.588Z,120.17
2023-01-11T15:40:21.325Z,108.90
2023-01-11T15:45:35.315Z,45.97
2023-01-11T15:51:00.109Z,58.53
2023-01-11T15:56:35.262Z,15.03
2023-01-11T16:02:00.196Z,9.23
2023-01-11T16:07:27.960Z,6.97
2023-01-11T16:12:58.861Z,5.50
2023-01-11T16:18:12.544Z,9.87
2023-01-11T16:23:20.847Z,6.47
2023-01-11T16:28:26.927Z,17.03
2023-01-11T16:33:35.093Z,7.13
2023-01-11T16:39:04.415Z,16.83
2023-01-11T16:44:11.995Z,13.90
2023-01-11T16:49:20.368Z,18.30
2023-01-11T16:54:31.576Z,11.13
2023-01-11T16:59:37.647Z,14.53
2023-01-11T17:04:54.603Z,10.77
2023-01-11T17:10:22.386Z,8.87
2023-01-11T17:15:38.046Z,14.20
2023-01-11T17:20:43.431Z,51.83
2023-01-11T17:25:53.699Z,48.70
2023-01-11T17:31:00.881Z,70.90
2023-01-11T17:36:08.804Z,107.83
2023-01-11T17:41:33.816Z,29.33
2023-01-11T17:46:41.356Z,20.80
2023-01-11T17:51:46.717Z,14.97
2023-01-11T17:57:01.248Z,15.13
2023-01-11T18:02:12.922Z,17.43
2023-01-11T18:07:21.613Z,14.37
2023-01-11T18:12:32.760Z,18.93
2023-01-11T18:17:40.538Z,20.00
2023-01-11T18:23:04.738Z,14.53
2023-01-11T18:28:24.307Z,15.00
2023-01-11T18:33:32.298Z,31.87
2023-01-11T18:38:38.166Z,18.67
2023-01-11T18:43:43.521Z,8.53
2023-01-11T18:54:28.572Z,10.73
2023-01-11T18:59:37.697Z,8.03
2023-01-11T19:04:43.666Z,11.53
2023-01-11T19:09:51.030Z,11.73
2023-01-11T19:14:59.515Z,13.20
2023-01-11T19:20:14.053Z,11.03
2023-01-11T19:25:23.602Z,25.10
2023-01-11T19:30:32.355Z,11.30
2023-01-11T19:35:43.507Z,12.30
2023-01-11T19:40:51.493Z,19.67
2023-01-11T19:46:00.223Z,13.57
2023-01-11T19:51:12.678Z,30.53
2023-01-11T19:56:20.471Z,12.40
2023-01-11T20:01:28.521Z,36.87
2023-01-11T20:06:34.683Z,18.60
2023-01-11T20:11:39.889Z,14.93
2023-01-11T20:16:45.952Z,14.23
2023-01-11T20:21:51.227Z,17.23
2023-01-11T20:26:59.601Z,11.83
2023-01-11T20:32:27.819Z,11.20
2023-01-11T20:37:14.798Z,8.83
2023-01-11T20:42:20.388Z,4.60
2023-01-11T20:47:25.628Z,5.50
2023-01-11T20:52:59.845Z,9.80
2023-01-11T20:58:28.030Z,10.73
2023-01-11T21:09:24.011Z,30.10
2023-01-11T21:14:53.015Z,11.03
2023-01-11T21:20:03.659Z,11.70
2023-01-11T21:25:12.481Z,16.70
2023-01-11T21:30:21.889Z,10.80
2023-01-11T21:35:27.660Z,23.87
2023-01-11T21:40:42.176Z,15.53
2023-01-11T21:45:56.891Z,12.20
2023-01-11T21:51:07.495Z,13.80
2023-01-11T21:56:12.914Z,8.90
2023-01-11T22:01:23.614Z,9.10
2023-01-11T22:06:32.685Z,9.30
2023-01-11T22:11:49.897Z,12.03
2023-01-11T22:17:08.482Z,10.07
2023-01-11T22:27:44.523Z,11.73
2023-01-11T22:32:49.891Z,7.07
2023-01-11T22:37:56.040Z,8.40
2023-01-11T22:43:01.263Z,7.53
2023-01-11T22:48:07.671Z,7.73
2023-01-11T22:53:12.841Z,9.37
2023-01-11T22:58:20.612Z,5.43
2023-01-11T23:03:26.125Z,7.90
2023-01-11T23:08:31.799Z,5.80
2023-01-11T23:13:56.259Z,7.70
2023-01-11T23:19:05.204Z,7.43
2023-01-11T23:24:19.687Z,6.50
2023-01-11T23:29:27.084Z,10.33
2023-01-11T23:34:42.447Z,5.70
2023-01-11T23:39:47.772Z,5.83
2023-01-11T23:44:57.748Z,6.87
2023-01-11T23:50:03.997Z,5.60
2023-01-11T23:55:27.863Z,11.10
